sensor_id;sensor_type;location;lat;lon;timestamp;P1;durP1;ratioP1;P2;durP2;ratioP2
21890;SDS011;11110;52.386;16.940;2023-12-20T00:02:07;46.27;;;22.37;;
21890;SDS011;11110;52.386;16.940;2023-12-20T00:04:35;47.83;;;21.37;;
21890;SDS011;11110;52.386;16.940;2023-12-20T00:07:04;34.60;;;22.83;;
21890;SDS011;11110;52.386;16.940;2023-12-20T00:09:33;39.60;;;22.53;;
21890;SDS011;11110;52.386;16.940;2023-12-20T00:12:01;44.73;;;22.93;;
21890;SDS011;11110;52.386;16.940;2023-12-20T00:14:30;31.67;;;18.43;;
21890;SDS011;11110;52.386;16.940;2023-12-20T00:16:58;42.87;;;30.33;;
21890;SDS011;11110;52.386;16.940;2023-12-20T00:19:28;39.63;;;25.47;;
21890;SDS011;11110;52.386;16.940;2023-12-20T00:21:57;43.20;;;23.40;;
21890;SDS011;11110;52.386;16.940;2023-12-20T00:24:26;41.17;;;21.73;;
21890;SDS011;11110;52.386;16.940;2023-12-20T00:26:55;32.03;;;24.70;;
21890;SDS011;11110;52.386;16.940;2023-12-20T00:29:23;39.60;;;27.17;;
21890;SDS011;11110;52.386;16.940;2023-12-20T00:31:52;43.73;;;30.17;;
21890;SDS011;11110;52.386;16.940;2023-12-20T00:34:20;33.17;;;27.27;;
21890;SDS011;11110;52.386;16.940;2023-12-20T00:36:50;35.23;;;25.90;;
21890;SDS011;11110;52.386;16.940;2023-12-20T00:39:18;43.43;;;27.63;;
21890;SDS011;11110;52.386;16.940;2023-12-20T00:41:47;34.97;;;23.40;;
21890;SDS011;11110;52.386;16.940;2023-12-20T00:44:15;37.30;;;22.70;;
21890;SDS011;11110;52.386;16.940;2023-12-20T00:46:44;26.53;;;18.90;;
21890;SDS011;11110;52.386;16.940;2023-12-20T00:49:12;35.63;;;24.00;;
21890;SDS011;11110;52.386;16.940;2023-12-20T00:51:41;40.10;;;27.67;;
21890;SDS011;11110;52.386;16.940;2023-12-20T00:54:11;30.30;;;19.10;;
21890;SDS011;11110;52.386;16.940;2023-12-20T00:56:40;28.50;;;17.53;;
21890;SDS011;11110;52.386;16.940;2023-12-20T00:59:08;41.93;;;24.67;;
21890;SDS011;11110;52.386;16.940;2023-12-20T01:01:37;35.37;;;23.07;;
21890;SDS011;11110;52.386;16.940;2023-12-20T01:04:09;31.27;;;22.77;;
21890;SDS011;11110;52.386;16.940;2023-12-20T01:06:38;32.00;;;23.53;;
21890;SDS011;11110;52.386;16.940;2023-12-20T01:09:06;31.67;;;25.83;;
21890;SDS011;11110;52.386;16.940;2023-12-20T01:11:36;41.13;;;29.33;;
21890;SDS011;11110;52.386;16.940;2023-12-20T01:14:04;43.43;;;35.27;;
21890;SDS011;11110;52.386;16.940;2023-12-20T01:16:33;42.60;;;33.00;;
21890;SDS011;11110;52.386;16.940;2023-12-20T01:19:02;43.33;;;30.30;;
21890;SDS011;11110;52.386;16.940;2023-12-20T01:21:30;37.70;;;30.53;;
21890;SDS011;11110;52.386;16.940;2023-12-20T01:23:59;48.83;;;39.67;;
21890;SDS011;11110;52.386;16.940;2023-12-20T01:26:27;53.67;;;40.97;;
21890;SDS011;11110;52.386;16.940;2023-12-20T01:28:57;52.43;;;37.53;;
21890;SDS011;11110;52.386;16.940;2023-12-20T01:31:26;47.90;;;41.07;;
21890;SDS011;11110;52.386;16.940;2023-12-20T01:33:54;47.30;;;38.33;;
21890;SDS011;11110;52.386;16.940;2023-12-20T01:36:23;40.17;;;35.50;;
21890;SDS011;11110;52.386;16.940;2023-12-20T01:38:51;49.10;;;30.27;;
21890;SDS011;11110;52.386;16.940;2023-12-20T01:41:20;28.53;;;25.43;;
21890;SDS011;11110;52.386;16.940;2023-12-20T01:43:49;32.23;;;24.20;;
21890;SDS011;11110;52.386;16.940;2023-12-20T01:46:21;38.00;;;25.10;;
21890;SDS011;11110;52.386;16.940;2023-12-20T01:48:49;34.17;;;23.70;;
21890;SDS011;11110;52.386;16.940;2023-12-20T01:51:19;32.13;;;21.37;;
21890;SDS011;11110;52.386;16.940;2023-12-20T01:53:48;30.67;;;18.77;;
21890;SDS011;11110;52.386;16.940;2023-12-20T01:56:17;31.17;;;15.90;;
21890;SDS011;11110;52.386;16.940;2023-12-20T01:58:46;31.13;;;21.70;;
21890;SDS011;11110;52.386;16.940;2023-12-20T02:01:16;35.80;;;26.77;;
21890;SDS011;11110;52.386;16.940;2023-12-20T02:03:46;35.43;;;24.90;;
21890;SDS011;11110;52.386;16.940;2023-12-20T02:06:16;40.13;;;26.20;;
21890;SDS011;11110;52.386;16.940;2023-12-20T02:08:46;32.10;;;20.80;;
21890;SDS011;11110;52.386;16.940;2023-12-20T02:11:15;25.43;;;17.50;;
21890;SDS011;11110;52.386;16.940;2023-12-20T02:13:44;33.03;;;17.43;;
21890;SDS011;11110;52.386;16.940;2023-12-20T02:16:13;37.07;;;17.33;;
21890;SDS011;11110;52.386;16.940;2023-12-20T02:18:42;40.67;;;17.67;;
21890;SDS011;11110;52.386;16.940;2023-12-20T02:21:12;34.53;;;18.17;;
21890;SDS011;11110;52.386;16.940;2023-12-20T02:23:42;31.97;;;17.67;;
21890;SDS011;11110;52.386;16.940;2023-12-20T02:26:11;34.17;;;18.23;;
21890;SDS011;11110;52.386;16.940;2023-12-20T02:28:40;37.53;;;25.20;;
21890;SDS011;11110;52.386;16.940;2023-12-20T02:31:09;30.37;;;22.90;;
21890;SDS011;11110;52.386;16.940;2023-12-20T02:33:37;27.57;;;22.20;;
21890;SDS011;11110;52.386;16.940;2023-12-20T02:36:06;37.13;;;28.63;;
21890;SDS011;11110;52.386;16.940;2023-12-20T02:38:34;33.97;;;23.50;;
21890;SDS011;11110;52.386;16.940;2023-12-20T02:41:04;34.20;;;23.53;;
21890;SDS011;11110;52.386;16.940;2023-12-20T02:43:33;38.07;;;20.53;;
21890;SDS011;11110;52.386;16.940;2023-12-20T02:46:01;33.17;;;17.83;;
21890;SDS011;11110;52.386;16.940;2023-12-20T02:48:30;25.43;;;16.97;;
21890;SDS011;11110;52.386;16.940;2023-12-20T02:50:59;33.13;;;18.13;;
21890;SDS011;11110;52.386;16.940;2023-12-20T02:53:27;37.30;;;27.37;;
21890;SDS011;11110;52.386;16.940;2023-12-20T02:55:55;34.63;;;30.90;;
21890;SDS011;11110;52.386;16.940;2023-12-20T02:58:25;39.13;;;30.60;;
21890;SDS011;11110;52.386;16.940;2023-12-20T03:00:54;44.20;;;35.00;;
21890;SDS011;11110;52.386;16.940;2023-12-20T03:03:23;42.77;;;34.40;;
21890;SDS011;11110;52.386;16.940;2023-12-20T03:05:52;43.63;;;31.63;;
21890;SDS011;11110;52.386;16.940;2023-12-20T03:08:20;38.80;;;29.73;;
21890;SDS011;11110;52.386;16.940;2023-12-20T03:10:49;36.47;;;31.40;;
21890;SDS011;11110;52.386;16.940;2023-12-20T03:13:17;48.70;;;33.70;;
21890;SDS011;11110;52.386;16.940;2023-12-20T03:15:48;43.03;;;31.30;;
21890;SDS011;11110;52.386;16.940;2023-12-20T03:18:16;31.60;;;28.30;;
21890;SDS011;11110;52.386;16.940;2023-12-20T03:20:45;37.97;;;34.00;;
21890;SDS011;11110;52.386;16.940;2023-12-20T03:23:14;39.20;;;32.43;;
21890;SDS011;11110;52.386;16.940;2023-12-20T03:25:43;45.07;;;37.40;;
21890;SDS011;11110;52.386;16.940;2023-12-20T03:28:14;32.63;;;28.53;;
21890;SDS011;11110;52.386;16.940;2023-12-20T03:30:42;35.93;;;23.57;;
21890;SDS011;11110;52.386;16.940;2023-12-20T03:33:12;30.10;;;15.67;;
21890;SDS011;11110;52.386;16.940;2023-12-20T03:35:41;29.33;;;13.90;;
21890;SDS011;11110;52.386;16.940;2023-12-20T03:38:09;32.27;;;15.23;;
21890;SDS011;11110;52.386;16.940;2023-12-20T03:40:38;32.80;;;20.10;;
21890;SDS011;11110;52.386;16.940;2023-12-20T03:43:06;31.53;;;19.63;;
21890;SDS011;11110;52.386;16.940;2023-12-20T03:45:35;30.50;;;21.23;;
21890;SDS011;11110;52.386;16.940;2023-12-20T03:48:04;31.63;;;18.57;;
21890;SDS011;11110;52.386;16.940;2023-12-20T03:50:35;25.70;;;18.53;;
21890;SDS011;11110;52.386;16.940;2023-12-20T03:53:03;33.90;;;18.57;;
21890;SDS011;11110;52.386;16.940;2023-12-20T03:55:32;29.10;;;15.20;;
21890;SDS011;11110;52.386;16.940;2023-12-20T03:58:00;23.57;;;14.80;;
21890;SDS011;11110;52.386;16.940;2023-12-20T04:00:29;53.57;;;17.57;;
21890;SDS011;11110;52.386;16.940;2023-12-20T04:02:57;29.60;;;15.27;;
21890;SDS011;11110;52.386;16.940;2023-12-20T04:05:26;27.00;;;15.87;;
21890;SDS011;11110;52.386;16.940;2023-12-20T04:07:56;32.47;;;20.20;;
21890;SDS011;11110;52.386;16.940;2023-12-20T04:10:25;33.60;;;24.37;;
21890;SDS011;11110;52.386;16.940;2023-12-20T04:12:53;37.77;;;24.70;;
21890;SDS011;11110;52.386;16.940;2023-12-20T04:15:22;28.97;;;21.50;;
21890;SDS011;11110;52.386;16.940;2023-12-20T04:17:50;24.27;;;18.93;;
21890;SDS011;11110;52.386;16.940;2023-12-20T04:20:19;40.07;;;23.10;;
21890;SDS011;11110;52.386;16.940;2023-12-20T04:22:47;29.17;;;18.63;;
21890;SDS011;11110;52.386;16.940;2023-12-20T04:25:17;34.80;;;20.90;;
21890;SDS011;11110;52.386;16.940;2023-12-20T04:27:46;33.97;;;19.03;;
21890;SDS011;11110;52.386;16.940;2023-12-20T04:30:15;35.07;;;21.83;;
21890;SDS011;11110;52.386;16.940;2023-12-20T04:32:43;41.43;;;27.10;;
21890;SDS011;11110;52.386;16.940;2023-12-20T04:35:12;27.83;;;22.87;;
21890;SDS011;11110;52.386;16.940;2023-12-20T04:37:41;35.67;;;23.80;;
21890;SDS011;11110;52.386;16.940;2023-12-20T04:40:10;42.80;;;29.23;;
21890;SDS011;11110;52.386;16.940;2023-12-20T04:42:41;31.13;;;27.37;;
21890;SDS011;11110;52.386;16.940;2023-12-20T04:45:10;30.27;;;24.37;;
21890;SDS011;11110;52.386;16.940;2023-12-20T04:47:41;40.37;;;26.57;;
21890;SDS011;11110;52.386;16.940;2023-12-20T04:50:10;46.07;;;31.20;;
21890;SDS011;11110;52.386;16.940;2023-12-20T04:52:40;38.03;;;27.23;;
21890;SDS011;11110;52.386;16.940;2023-12-20T04:55:09;31.90;;;24.73;;
21890;SDS011;11110;52.386;16.940;2023-12-20T04:57:38;32.77;;;20.00;;
21890;SDS011;11110;52.386;16.940;2023-12-20T05:00:08;33.57;;;21.83;;
21890;SDS011;11110;52.386;16.940;2023-12-20T05:02:37;35.57;;;23.83;;
21890;SDS011;11110;52.386;16.940;2023-12-20T05:05:06;36.37;;;19.83;;
21890;SDS011;11110;52.386;16.940;2023-12-20T05:07:35;25.50;;;18.00;;
21890;SDS011;11110;52.386;16.940;2023-12-20T05:10:04;37.40;;;18.53;;
21890;SDS011;11110;52.386;16.940;2023-12-20T05:12:35;34.73;;;16.63;;
21890;SDS011;11110;52.386;16.940;2023-12-20T05:15:04;34.27;;;22.33;;
21890;SDS011;11110;52.386;16.940;2023-12-20T05:17:35;31.97;;;26.97;;
21890;SDS011;11110;52.386;16.940;2023-12-20T05:20:04;39.67;;;28.13;;
21890;SDS011;11110;52.386;16.940;2023-12-20T05:22:33;35.10;;;31.53;;
21890;SDS011;11110;52.386;16.940;2023-12-20T05:25:02;46.57;;;37.37;;
21890;SDS011;11110;52.386;16.940;2023-12-20T05:27:31;55.87;;;50.63;;
21890;SDS011;11110;52.386;16.940;2023-12-20T05:30:00;37.63;;;32.47;;
21890;SDS011;11110;52.386;16.940;2023-12-20T05:32:28;34.37;;;24.23;;
21890;SDS011;11110;52.386;16.940;2023-12-20T05:34:58;43.70;;;32.23;;
21890;SDS011;11110;52.386;16.940;2023-12-20T05:37:26;40.30;;;33.60;;
21890;SDS011;11110;52.386;16.940;2023-12-20T05:39:55;43.43;;;34.87;;
21890;SDS011;11110;52.386;16.940;2023-12-20T05:42:24;43.77;;;34.37;;
21890;SDS011;11110;52.386;16.940;2023-12-20T05:44:52;37.97;;;33.40;;
21890;SDS011;11110;52.386;16.940;2023-12-20T05:47:24;41.10;;;30.87;;
21890;SDS011;11110;52.386;16.940;2023-12-20T05:49:53;40.27;;;24.23;;
21890;SDS011;11110;52.386;16.940;2023-12-20T05:52:23;30.17;;;17.93;;
21890;SDS011;11110;52.386;16.940;2023-12-20T05:54:51;39.23;;;28.27;;
21890;SDS011;11110;52.386;16.940;2023-12-20T05:57:20;43.73;;;29.80;;
21890;SDS011;11110;52.386;16.940;2023-12-20T05:59:50;41.30;;;25.43;;
21890;SDS011;11110;52.386;16.940;2023-12-20T06:02:18;38.57;;;25.83;;
21890;SDS011;11110;52.386;16.940;2023-12-20T06:04:47;32.90;;;19.97;;
21890;SDS011;11110;52.386;16.940;2023-12-20T06:07:15;29.67;;;20.57;;
21890;SDS011;11110;52.386;16.940;2023-12-20T06:09:46;49.47;;;26.53;;
21890;SDS011;11110;52.386;16.940;2023-12-20T06:12:15;31.87;;;24.87;;
21890;SDS011;11110;52.386;16.940;2023-12-20T06:14:43;32.47;;;29.03;;
21890;SDS011;11110;52.386;16.940;2023-12-20T06:17:11;42.53;;;32.33;;
21890;SDS011;11110;52.386;16.940;2023-12-20T06:19:40;35.70;;;25.00;;
21890;SDS011;11110;52.386;16.940;2023-12-20T06:22:11;29.60;;;22.87;;
21890;SDS011;11110;52.386;16.940;2023-12-20T06:24:40;39.80;;;21.50;;
21890;SDS011;11110;52.386;16.940;2023-12-20T06:27:10;41.07;;;21.33;;
21890;SDS011;11110;52.386;16.940;2023-12-20T06:29:39;33.63;;;17.00;;
21890;SDS011;11110;52.386;16.940;2023-12-20T06:32:09;28.27;;;16.00;;
21890;SDS011;11110;52.386;16.940;2023-12-20T06:34:38;36.20;;;16.37;;
21890;SDS011;11110;52.386;16.940;2023-12-20T06:37:06;40.23;;;17.40;;
21890;SDS011;11110;52.386;16.940;2023-12-20T06:39:35;37.13;;;17.83;;
21890;SDS011;11110;52.386;16.940;2023-12-20T06:42:03;25.57;;;17.37;;
21890;SDS011;11110;52.386;16.940;2023-12-20T06:44:33;32.47;;;19.87;;
21890;SDS011;11110;52.386;16.940;2023-12-20T06:47:02;32.30;;;17.60;;
21890;SDS011;11110;52.386;16.940;2023-12-20T06:49:31;29.93;;;16.30;;
21890;SDS011;11110;52.386;16.940;2023-12-20T06:51:59;34.83;;;21.83;;
21890;SDS011;11110;52.386;16.940;2023-12-20T06:54:28;37.23;;;24.23;;
21890;SDS011;11110;52.386;16.940;2023-12-20T06:56:56;28.37;;;22.43;;
21890;SDS011;11110;52.386;16.940;2023-12-20T06:59:25;30.87;;;24.30;;
21890;SDS011;11110;52.386;16.940;2023-12-20T07:01:54;38.87;;;19.23;;
21890;SDS011;11110;52.386;16.940;2023-12-20T07:04:23;33.60;;;19.70;;
21890;SDS011;11110;52.386;16.940;2023-12-20T07:06:52;41.00;;;29.93;;
21890;SDS011;11110;52.386;16.940;2023-12-20T07:09:24;47.17;;;26.40;;
21890;SDS011;11110;52.386;16.940;2023-12-20T07:11:52;38.33;;;20.47;;
21890;SDS011;11110;52.386;16.940;2023-12-20T07:14:21;44.47;;;27.83;;
21890;SDS011;11110;52.386;16.940;2023-12-20T07:16:49;50.93;;;38.93;;
21890;SDS011;11110;52.386;16.940;2023-12-20T07:19:19;44.33;;;39.60;;
21890;SDS011;11110;52.386;16.940;2023-12-20T07:21:48;41.47;;;32.67;;
21890;SDS011;11110;52.386;16.940;2023-12-20T07:24:17;48.97;;;41.53;;
21890;SDS011;11110;52.386;16.940;2023-12-20T07:26:45;58.57;;;43.27;;
21890;SDS011;11110;52.386;16.940;2023-12-20T07:29:13;50.90;;;43.40;;
21890;SDS011;11110;52.386;16.940;2023-12-20T07:31:42;49.00;;;40.57;;
21890;SDS011;11110;52.386;16.940;2023-12-20T07:34:11;53.43;;;41.03;;
21890;SDS011;11110;52.386;16.940;2023-12-20T07:36:41;39.40;;;35.00;;
21890;SDS011;11110;52.386;16.940;2023-12-20T07:39:09;42.33;;;30.97;;
21890;SDS011;11110;52.386;16.940;2023-12-20T07:41:37;40.87;;;30.57;;
21890;SDS011;11110;52.386;16.940;2023-12-20T07:44:06;37.30;;;28.20;;
21890;SDS011;11110;52.386;16.940;2023-12-20T07:46:34;43.10;;;31.07;;
21890;SDS011;11110;52.386;16.940;2023-12-20T07:49:03;40.93;;;32.37;;
21890;SDS011;11110;52.386;16.940;2023-12-20T07:51:32;39.63;;;29.20;;
21890;SDS011;11110;52.386;16.940;2023-12-20T07:54:02;43.50;;;26.87;;
21890;SDS011;11110;52.386;16.940;2023-12-20T07:56:31;50.00;;;35.77;;
21890;SDS011;11110;52.386;16.940;2023-12-20T07:59:00;47.47;;;38.53;;
21890;SDS011;11110;52.386;16.940;2023-12-20T08:01:29;47.53;;;35.67;;
21890;SDS011;11110;52.386;16.940;2023-12-20T08:03:57;50.97;;;37.33;;
21890;SDS011;11110;52.386;16.940;2023-12-20T08:06:26;41.40;;;33.53;;
21890;SDS011;11110;52.386;16.940;2023-12-20T08:08:54;39.23;;;34.17;;
21890;SDS011;11110;52.386;16.940;2023-12-20T08:11:33;39.87;;;28.80;;
21890;SDS011;11110;52.386;16.940;2023-12-20T08:14:02;51.50;;;34.97;;
21890;SDS011;11110;52.386;16.940;2023-12-20T08:16:30;42.33;;;31.20;;
21890;SDS011;11110;52.386;16.940;2023-12-20T08:18:59;44.10;;;26.40;;
21890;SDS011;11110;52.386;16.940;2023-12-20T08:21:29;37.23;;;26.40;;
21890;SDS011;11110;52.386;16.940;2023-12-20T08:24:01;39.50;;;27.20;;
21890;SDS011;11110;52.386;16.940;2023-12-20T08:26:29;47.40;;;32.93;;
21890;SDS011;11110;52.386;16.940;2023-12-20T08:28:59;37.27;;;33.13;;
21890;SDS011;11110;52.386;16.940;2023-12-20T08:31:28;42.07;;;37.83;;
21890;SDS011;11110;52.386;16.940;2023-12-20T08:33:57;49.97;;;41.07;;
21890;SDS011;11110;52.386;16.940;2023-12-20T08:36:25;51.73;;;45.10;;
21890;SDS011;11110;52.386;16.940;2023-12-20T08:38:54;53.00;;;44.23;;
21890;SDS011;11110;52.386;16.940;2023-12-20T08:41:22;61.63;;;44.93;;
21890;SDS011;11110;52.386;16.940;2023-12-20T08:43:51;49.93;;;41.87;;
21890;SDS011;11110;52.386;16.940;2023-12-20T08:46:21;51.47;;;40.03;;
21890;SDS011;11110;52.386;16.940;2023-12-20T08:48:49;39.90;;;35.07;;
21890;SDS011;11110;52.386;16.940;2023-12-20T08:51:18;44.93;;;32.53;;
21890;SDS011;11110;52.386;16.940;2023-12-20T08:53:48;71.23;;;41.10;;
21890;SDS011;11110;52.386;16.940;2023-12-20T08:56:16;47.87;;;36.27;;
21890;SDS011;11110;52.386;16.940;2023-12-20T08:58:45;44.63;;;38.27;;
21890;SDS011;11110;52.386;16.940;2023-12-20T09:01:14;50.97;;;39.83;;
21890;SDS011;11110;52.386;16.940;2023-12-20T09:03:44;46.23;;;40.47;;
21890;SDS011;11110;52.386;16.940;2023-12-20T09:06:12;50.00;;;37.07;;
21890;SDS011;11110;52.386;16.940;2023-12-20T09:08:41;54.77;;;40.63;;
21890;SDS011;11110;52.386;16.940;2023-12-20T09:11:10;56.00;;;40.37;;
21890;SDS011;11110;52.386;16.940;2023-12-20T09:13:39;55.47;;;39.27;;
21890;SDS011;11110;52.386;16.940;2023-12-20T09:16:08;46.10;;;35.73;;
21890;SDS011;11110;52.386;16.940;2023-12-20T09:18:37;50.90;;;40.13;;
21890;SDS011;11110;52.386;16.940;2023-12-20T09:21:06;54.60;;;35.73;;
21890;SDS011;11110;52.386;16.940;2023-12-20T09:23:35;53.37;;;37.93;;
21890;SDS011;11110;52.386;16.940;2023-12-20T09:26:04;45.23;;;40.03;;
21890;SDS011;11110;52.386;16.940;2023-12-20T09:28:33;51.77;;;37.13;;
21890;SDS011;11110;52.386;16.940;2023-12-20T09:31:04;45.30;;;35.23;;
21890;SDS011;11110;52.386;16.940;2023-12-20T09:33:33;46.73;;;38.37;;
21890;SDS011;11110;52.386;16.940;2023-12-20T09:36:02;48.07;;;42.90;;
21890;SDS011;11110;52.386;16.940;2023-12-20T09:38:33;51.93;;;42.83;;
21890;SDS011;11110;52.386;16.940;2023-12-20T09:41:01;48.10;;;42.73;;
21890;SDS011;11110;52.386;16.940;2023-12-20T09:43:31;48.20;;;42.67;;
21890;SDS011;11110;52.386;16.940;2023-12-20T09:46:03;57.77;;;44.37;;
21890;SDS011;11110;52.386;16.940;2023-12-20T09:48:34;54.10;;;43.30;;
21890;SDS011;11110;52.386;16.940;2023-12-20T09:51:04;51.17;;;40.90;;
21890;SDS011;11110;52.386;16.940;2023-12-20T09:53:34;55.10;;;43.67;;
21890;SDS011;11110;52.386;16.940;2023-12-20T09:56:04;47.77;;;41.60;;
21890;SDS011;11110;52.386;16.940;2023-12-20T09:58:35;41.70;;;37.23;;
21890;SDS011;11110;52.386;16.940;2023-12-20T10:01:05;44.00;;;39.33;;
21890;SDS011;11110;52.386;16.940;2023-12-20T10:03:35;44.47;;;40.13;;
21890;SDS011;11110;52.386;16.940;2023-12-20T10:06:04;48.90;;;43.23;;
21890;SDS011;11110;52.386;16.940;2023-12-20T10:08:34;59.80;;;46.43;;
21890;SDS011;11110;52.386;16.940;2023-12-20T10:11:03;52.47;;;46.83;;
21890;SDS011;11110;52.386;16.940;2023-12-20T10:13:33;50.33;;;44.97;;
21890;SDS011;11110;52.386;16.940;2023-12-20T10:16:02;48.23;;;43.40;;
21890;SDS011;11110;52.386;16.940;2023-12-20T10:18:31;52.17;;;41.23;;
21890;SDS011;11110;52.386;16.940;2023-12-20T10:21:05;47.03;;;42.20;;
21890;SDS011;11110;52.386;16.940;2023-12-20T10:23:38;45.73;;;40.97;;
21890;SDS011;11110;52.386;16.940;2023-12-20T10:26:07;44.30;;;37.17;;
21890;SDS011;11110;52.386;16.940;2023-12-20T10:28:36;45.53;;;40.40;;
21890;SDS011;11110;52.386;16.940;2023-12-20T10:31:05;48.07;;;41.80;;
21890;SDS011;11110;52.386;16.940;2023-12-20T10:33:34;47.00;;;41.00;;
21890;SDS011;11110;52.386;16.940;2023-12-20T10:36:03;45.40;;;40.43;;
21890;SDS011;11110;52.386;16.940;2023-12-20T10:38:33;47.87;;;38.87;;
21890;SDS011;11110;52.386;16.940;2023-12-20T10:41:04;45.13;;;33.23;;
21890;SDS011;11110;52.386;16.940;2023-12-20T10:43:35;47.13;;;29.17;;
21890;SDS011;11110;52.386;16.940;2023-12-20T10:46:04;44.30;;;35.13;;
21890;SDS011;11110;52.386;16.940;2023-12-20T10:48:34;43.70;;;38.97;;
21890;SDS011;11110;52.386;16.940;2023-12-20T10:51:04;40.47;;;36.30;;
21890;SDS011;11110;52.386;16.940;2023-12-20T10:53:33;29.93;;;27.37;;
21890;SDS011;11110;52.386;16.940;2023-12-20T10:56:06;35.50;;;25.27;;
21890;SDS011;11110;52.386;16.940;2023-12-20T10:58:39;39.13;;;9.23;;
21890;SDS011;11110;52.386;16.940;2023-12-20T11:01:10;49.80;;;30.40;;
21890;SDS011;11110;52.386;16.940;2023-12-20T11:03:43;36.70;;;15.60;;
21890;SDS011;11110;52.386;16.940;2023-12-20T11:06:15;25.43;;;9.20;;
21890;SDS011;11110;52.386;16.940;2023-12-20T11:08:59;27.10;;;8.20;;
21890;SDS011;11110;52.386;16.940;2023-12-20T11:11:39;21.10;;;6.50;;
21890;SDS011;11110;52.386;16.940;2023-12-20T11:14:22;27.73;;;6.40;;
21890;SDS011;11110;52.386;16.940;2023-12-20T11:17:05;24.60;;;6.27;;
21890;SDS011;11110;52.386;16.940;2023-12-20T11:19:35;25.27;;;6.10;;
21890;SDS011;11110;52.386;16.940;2023-12-20T11:22:05;26.27;;;7.07;;
21890;SDS011;11110;52.386;16.940;2023-12-20T11:24:34;29.67;;;7.30;;
21890;SDS011;11110;52.386;16.940;2023-12-20T11:27:05;27.13;;;7.77;;
21890;SDS011;11110;52.386;16.940;2023-12-20T11:29:35;21.10;;;9.63;;
21890;SDS011;11110;52.386;16.940;2023-12-20T11:32:27;43.07;;;16.80;;
21890;SDS011;11110;52.386;16.940;2023-12-20T11:34:57;31.20;;;22.90;;
21890;SDS011;11110;52.386;16.940;2023-12-20T11:37:30;38.43;;;29.93;;
21890;SDS011;11110;52.386;16.940;2023-12-20T11:40:00;35.20;;;27.87;;
21890;SDS011;11110;52.386;16.940;2023-12-20T11:42:33;51.57;;;32.97;;
21890;SDS011;11110;52.386;16.940;2023-12-20T11:45:08;45.17;;;31.10;;
21890;SDS011;11110;52.386;16.940;2023-12-20T11:47:37;34.50;;;27.23;;
21890;SDS011;11110;52.386;16.940;2023-12-20T11:50:06;34.17;;;29.10;;
21890;SDS011;11110;52.386;16.940;2023-12-20T11:52:35;40.57;;;25.43;;
21890;SDS011;11110;52.386;16.940;2023-12-20T11:55:04;41.73;;;26.30;;
21890;SDS011;11110;52.386;16.940;2023-12-20T11:57:35;38.47;;;28.93;;
21890;SDS011;11110;52.386;16.940;2023-12-20T12:00:05;45.07;;;38.07;;
21890;SDS011;11110;52.386;16.940;2023-12-20T12:02:40;29.47;;;26.30;;
21890;SDS011;11110;52.386;16.940;2023-12-20T12:05:12;37.43;;;27.53;;
21890;SDS011;11110;52.386;16.940;2023-12-20T12:07:40;34.43;;;23.47;;
21890;SDS011;11110;52.386;16.940;2023-12-20T12:10:09;34.20;;;19.87;;
21890;SDS011;11110;52.386;16.940;2023-12-20T12:12:39;29.00;;;19.20;;
21890;SDS011;11110;52.386;16.940;2023-12-20T12:15:08;35.10;;;16.97;;
21890;SDS011;11110;52.386;16.940;2023-12-20T12:17:37;32.17;;;17.33;;
21890;SDS011;11110;52.386;16.940;2023-12-20T12:20:06;31.60;;;19.33;;
21890;SDS011;11110;52.386;16.940;2023-12-20T12:22:36;40.63;;;21.97;;
21890;SDS011;11110;52.386;16.940;2023-12-20T12:25:11;35.80;;;19.37;;
21890;SDS011;11110;52.386;16.940;2023-12-20T12:27:42;32.23;;;14.73;;
21890;SDS011;11110;52.386;16.940;2023-12-20T12:30:12;24.37;;;15.30;;
21890;SDS011;11110;52.386;16.940;2023-12-20T12:32:40;23.53;;;11.80;;
21890;SDS011;11110;52.386;16.940;2023-12-20T12:35:09;26.70;;;11.53;;
21890;SDS011;11110;52.386;16.940;2023-12-20T12:37:39;35.67;;;12.27;;
21890;SDS011;11110;52.386;16.940;2023-12-20T12:40:09;32.20;;;14.13;;
21890;SDS011;11110;52.386;16.940;2023-12-20T12:42:40;25.63;;;11.80;;
21890;SDS011;11110;52.386;16.940;2023-12-20T12:45:11;28.43;;;11.10;;
21890;SDS011;11110;52.386;16.940;2023-12-20T12:47:40;30.17;;;13.57;;
21890;SDS011;11110;52.386;16.940;2023-12-20T12:50:09;32.30;;;12.20;;
21890;SDS011;11110;52.386;16.940;2023-12-20T12:52:37;28.20;;;11.00;;
21890;SDS011;11110;52.386;16.940;2023-12-20T12:55:06;37.50;;;23.33;;
21890;SDS011;11110;52.386;16.940;2023-12-20T12:57:35;24.70;;;11.73;;
21890;SDS011;11110;52.386;16.940;2023-12-20T13:00:06;29.80;;;10.30;;
21890;SDS011;11110;52.386;16.940;2023-12-20T13:02:36;27.73;;;9.07;;
21890;SDS011;11110;52.386;16.940;2023-12-20T13:05:09;22.63;;;7.93;;
21890;SDS011;11110;52.386;16.940;2023-12-20T13:07:37;30.23;;;8.60;;
21890;SDS011;11110;52.386;16.940;2023-12-20T13:10:06;21.93;;;7.67;;
21890;SDS011;11110;52.386;16.940;2023-12-20T13:12:35;23.20;;;7.30;;
21890;SDS011;11110;52.386;16.940;2023-12-20T13:15:06;25.50;;;9.13;;
21890;SDS011;11110;52.386;16.940;2023-12-20T13:17:35;29.83;;;10.90;;
21890;SDS011;11110;52.386;16.940;2023-12-20T13:20:05;23.10;;;8.43;;
21890;SDS011;11110;52.386;16.940;2023-12-20T13:22:35;28.97;;;10.17;;
21890;SDS011;11110;52.386;16.940;2023-12-20T13:25:04;27.20;;;10.00;;
21890;SDS011;11110;52.386;16.940;2023-12-20T13:27:33;23.30;;;9.27;;
21890;SDS011;11110;52.386;16.940;2023-12-20T13:30:02;28.60;;;9.13;;
21890;SDS011;11110;52.386;16.940;2023-12-20T13:32:32;20.50;;;7.03;;
21890;SDS011;11110;52.386;16.940;2023-12-20T13:35:01;26.90;;;8.20;;
21890;SDS011;11110;52.386;16.940;2023-12-20T13:37:31;33.80;;;10.27;;
21890;SDS011;11110;52.386;16.940;2023-12-20T13:40:00;30.43;;;8.60;;
21890;SDS011;11110;52.386;16.940;2023-12-20T13:42:29;29.43;;;6.60;;
21890;SDS011;11110;52.386;16.940;2023-12-20T13:44:58;34.90;;;9.07;;
21890;SDS011;11110;52.386;16.940;2023-12-20T13:47:26;25.50;;;7.87;;
21890;SDS011;11110;52.386;16.940;2023-12-20T13:50:00;34.40;;;10.63;;
21890;SDS011;11110;52.386;16.940;2023-12-20T13:52:28;30.00;;;9.67;;
21890;SDS011;11110;52.386;16.940;2023-12-20T13:54:57;31.73;;;9.07;;
21890;SDS011;11110;52.386;16.940;2023-12-20T13:57:25;24.83;;;8.13;;
21890;SDS011;11110;52.386;16.940;2023-12-20T14:00:16;36.67;;;9.43;;
21890;SDS011;11110;52.386;16.940;2023-12-20T14:02:45;37.70;;;13.73;;
21890;SDS011;11110;52.386;16.940;2023-12-20T14:05:15;38.67;;;10.27;;
21890;SDS011;11110;52.386;16.940;2023-12-20T14:07:45;37.67;;;9.43;;
21890;SDS011;11110;52.386;16.940;2023-12-20T14:10:15;36.30;;;14.20;;
21890;SDS011;11110;52.386;16.940;2023-12-20T14:12:43;42.50;;;11.13;;
21890;SDS011;11110;52.386;16.940;2023-12-20T14:15:12;42.23;;;12.70;;
21890;SDS011;11110;52.386;16.940;2023-12-20T14:17:41;39.43;;;13.10;;
21890;SDS011;11110;52.386;16.940;2023-12-20T14:20:10;28.53;;;7.53;;
21890;SDS011;11110;52.386;16.940;2023-12-20T14:22:41;28.60;;;7.73;;
21890;SDS011;11110;52.386;16.940;2023-12-20T14:25:12;22.93;;;8.53;;